sensor_id;sensor_type;location;lat;lon;timestamp;temperature;humidity
22081;DHT22;11207;59.512;18.050;2023-02-03T00:00:57;-7.30;99.90
22081;DHT22;11207;59.512;18.050;2023-02-03T00:03:23;-7.30;99.90
22081;DHT22;11207;59.512;18.050;2023-02-03T00:05:48;-7.40;99.90
22081;DHT22;11207;59.512;18.050;2023-02-03T00:08:14;-7.50;99.90
22081;DHT22;11207;59.512;18.050;2023-02-03T00:10:41;-7.70;99.90
22081;DHT22;11207;59.512;18.050;2023-02-03T00:13:08;-7.90;99.90
22081;DHT22;11207;59.512;18.050;2023-02-03T00:15:33;-7.90;99.90
22081;DHT22;11207;59.512;18.050;2023-02-03T00:17:59;-8.00;99.90
22081;DHT22;11207;59.512;18.050;2023-02-03T00:20:24;-8.00;99.90
22081;DHT22;11207;59.512;18.050;2023-02-03T00:22:50;-8.00;99.90
22081;DHT22;11207;59.512;18.050;2023-02-03T00:25:16;-8.00;99.90
22081;DHT22;11207;59.512;18.050;2023-02-03T00:27:43;-8.00;99.90
22081;DHT22;11207;59.512;18.050;2023-02-03T00:30:10;-8.00;99.90
22081;DHT22;11207;59.512;18.050;2023-02-03T00:32:36;-8.00;99.90
22081;DHT22;11207;59.512;18.050;2023-02-03T00:35:02;-8.00;99.90
22081;DHT22;11207;59.512;18.050;2023-02-03T00:37:28;-8.10;99.90
22081;DHT22;11207;59.512;18.050;2023-02-03T00:39:54;-8.10;99.90
22081;DHT22;11207;59.512;18.050;2023-02-03T00:42:19;-8.00;99.90
22081;DHT22;11207;59.512;18.050;2023-02-03T00:44:45;-8.00;99.90
22081;DHT22;11207;59.512;18.050;2023-02-03T00:47:11;-7.90;99.90
22081;DHT22;11207;59.512;18.050;2023-02-03T00:49:36;-7.80;99.90
22081;DHT22;11207;59.512;18.050;2023-02-03T00:52:02;-7.80;99.90
22081;DHT22;11207;59.512;18.050;2023-02-03T00:54:28;-7.80;99.90
22081;DHT22;11207;59.512;18.050;2023-02-03T00:56:53;-7.80;99.90
22081;DHT22;11207;59.512;18.050;2023-02-03T00:59:19;-7.80;99.90
22081;DHT22;11207;59.512;18.050;2023-02-03T01:01:44;-7.80;99.90
22081;DHT22;11207;59.512;18.050;2023-02-03T01:04:10;-8.00;99.90
22081;DHT22;11207;59.512;18.050;2023-02-03T01:06:36;-8.10;99.90
22081;DHT22;11207;59.512;18.050;2023-02-03T01:09:02;-8.10;99.90
22081;DHT22;11207;59.512;18.050;2023-02-03T01:11:27;-8.10;99.90
22081;DHT22;11207;59.512;18.050;2023-02-03T01:13:55;-8.10;99.90
22081;DHT22;11207;59.512;18.050;2023-02-03T01:16:22;-8.10;99.90
22081;DHT22;11207;59.512;18.050;2023-02-03T01:18:49;-8.20;99.90
22081;DHT22;11207;59.512;18.050;2023-02-03T01:21:17;-8.30;99.90
22081;DHT22;11207;59.512;18.050;2023-02-03T01:23:44;-8.40;99.90
22081;DHT22;11207;59.512;18.050;2023-02-03T01:26:12;-8.40;99.90
22081;DHT22;11207;59.512;18.050;2023-02-03T01:28:37;-8.50;99.90
22081;DHT22;11207;59.512;18.050;2023-02-03T01:31:13;-8.50;99.90
22081;DHT22;11207;59.512;18.050;2023-02-03T01:33:40;-8.50;99.90
22081;DHT22;11207;59.512;18.050;2023-02-03T01:36:07;-8.60;99.90
22081;DHT22;11207;59.512;18.050;2023-02-03T01:38:33;-8.60;99.90
22081;DHT22;11207;59.512;18.050;2023-02-03T01:40:59;-8.50;99.90
22081;DHT22;11207;59.512;18.050;2023-02-03T01:43:38;-8.50;99.90
22081;DHT22;11207;59.512;18.050;2023-02-03T01:48:39;-8.60;99.90
22081;DHT22;11207;59.512;18.050;2023-02-03T01:51:05;-8.70;99.90
22081;DHT22;11207;59.512;18.050;2023-02-03T01:53:32;-8.70;99.90
22081;DHT22;11207;59.512;18.050;2023-02-03T01:55:58;-8.90;99.90
22081;DHT22;11207;59.512;18.050;2023-02-03T01:58:30;-8.90;99.90
22081;DHT22;11207;59.512;18.050;2023-02-03T02:00:58;-9.00;99.90
22081;DHT22;11207;59.512;18.050;2023-02-03T02:03:30;-9.10;99.90
22081;DHT22;11207;59.512;18.050;2023-02-03T02:06:04;-9.10;99.90
22081;DHT22;11207;59.512;18.050;2023-02-03T02:08:30;-9.10;99.90
22081;DHT22;11207;59.512;18.050;2023-02-03T02:10:57;-9.00;99.90
22081;DHT22;11207;59.512;18.050;2023-02-03T02:13:23;-9.00;99.90
22081;DHT22;11207;59.512;18.050;2023-02-03T02:32:01;-9.00;99.90
22081;DHT22;11207;59.512;18.050;2023-02-03T02:34:50;-9.10;99.90
22081;DHT22;11207;59.512;18.050;2023-02-03T02:40:27;-9.10;99.90
22081;DHT22;11207;59.512;18.050;2023-02-03T02:43:09;-9.10;99.90
22081;DHT22;11207;59.512;18.050;2023-02-03T02:45:40;-9.10;99.90
22081;DHT22;11207;59.512;18.050;2023-02-03T02:48:16;-9.10;99.90
22081;DHT22;11207;59.512;18.050;2023-02-03T02:50:48;-9.10;99.90
22081;DHT22;11207;59.512;18.050;2023-02-03T02:53:17;-9.20;99.90
22081;DHT22;11207;59.512;18.050;2023-02-03T02:55:45;-9.20;99.90
22081;DHT22;11207;59.512;18.050;2023-02-03T02:58:14;-9.20;99.90
22081;DHT22;11207;59.512;18.050;2023-02-03T03:00:42;-9.30;99.90
22081;DHT22;11207;59.512;18.050;2023-02-03T03:03:17;-9.30;99.90
22081;DHT22;11207;59.512;18.050;2023-02-03T03:05:55;-9.40;99.90
22081;DHT22;11207;59.512;18.050;2023-02-03T03:08:26;-9.40;99.90
22081;DHT22;11207;59.512;18.050;2023-02-03T03:10:54;-9.40;99.90
22081;DHT22;11207;59.512;18.050;2023-02-03T03:13:26;-9.40;99.90
22081;DHT22;11207;59.512;18.050;2023-02-03T03:15:55;-9.40;99.90
22081;DHT22;11207;59.512;18.050;2023-02-03T03:20:57;-9.40;99.90
22081;DHT22;11207;59.512;18.050;2023-02-03T03:23:32;-9.40;99.90
22081;DHT22;11207;59.512;18.050;2023-02-03T03:26:21;-9.40;99.90
22081;DHT22;11207;59.512;18.050;2023-02-03T03:28:50;-9.40;99.90
22081;DHT22;11207;59.512;18.050;2023-02-03T03:31:18;-9.50;99.90
22081;DHT22;11207;59.512;18.050;2023-02-03T03:33:44;-9.50;99.90
22081;DHT22;11207;59.512;18.050;2023-02-03T03:36:13;-9.50;99.90
22081;DHT22;11207;59.512;18.050;2023-02-03T03:39:06;-9.50;99.90
22081;DHT22;11207;59.512;18.050;2023-02-03T03:41:42;-9.60;99.90
22081;DHT22;11207;59.512;18.050;2023-02-03T03:44:14;-9.60;99.90
22081;DHT22;11207;59.512;18.050;2023-02-03T03:46:49;-9.60;99.90
22081;DHT22;11207;59.512;18.050;2023-02-03T03:49:16;-9.50;99.90
22081;DHT22;11207;59.512;18.050;2023-02-03T03:51:55;-9.50;99.90
22081;DHT22;11207;59.512;18.050;2023-02-03T03:54:23;-9.60;99.90
22081;DHT22;11207;59.512;18.050;2023-02-03T03:57:08;-9.60;99.90
22081;DHT22;11207;59.512;18.050;2023-02-03T03:59:40;-9.50;99.90
22081;DHT22;11207;59.512;18.050;2023-02-03T04:02:09;-9.50;99.90
22081;DHT22;11207;59.512;18.050;2023-02-03T04:04:37;-9.60;99.90
22081;DHT22;11207;59.512;18.050;2023-02-03T04:07:04;-9.60;99.90
22081;DHT22;11207;59.512;18.050;2023-02-03T04:09:30;-9.60;99.90
22081;DHT22;11207;59.512;18.050;2023-02-03T04:11:56;-9.60;99.90
22081;DHT22;11207;59.512;18.050;2023-02-03T04:14:35;-9.70;99.90
22081;DHT22;11207;59.512;18.050;2023-02-03T04:17:04;-9.70;99.90
22081;DHT22;11207;59.512;18.050;2023-02-03T04:19:30;-9.70;99.90
22081;DHT22;11207;59.512;18.050;2023-02-03T04:21:56;-9.70;99.90
22081;DHT22;11207;59.512;18.050;2023-02-03T04:24:21;-9.70;99.90
22081;DHT22;11207;59.512;18.050;2023-02-03T04:26:47;-9.70;99.90
22081;DHT22;11207;59.512;18.050;2023-02-03T04:29:13;-9.80;99.90
22081;DHT22;11207;59.512;18.050;2023-02-03T04:31:38;-9.70;99.90
22081;DHT22;11207;59.512;18.050;2023-02-03T04:34:05;-9.70;99.90
22081;DHT22;11207;59.512;18.050;2023-02-03T04:36:30;-9.80;99.90
22081;DHT22;11207;59.512;18.050;2023-02-03T04:38:56;-9.80;99.90
22081;DHT22;11207;59.512;18.050;2023-02-03T04:41:21;-9.80;99.90
22081;DHT22;11207;59.512;18.050;2023-02-03T04:43:47;-9.80;99.90
22081;DHT22;11207;59.512;18.050;2023-02-03T04:46:13;-9.80;99.90
22081;DHT22;11207;59.512;18.050;2023-02-03T04:48:39;-9.80;99.90
22081;DHT22;11207;59.512;18.050;2023-02-03T04:51:06;-9.90;99.90
22081;DHT22;11207;59.512;18.050;2023-02-03T04:53:32;-9.90;99.90
22081;DHT22;11207;59.512;18.050;2023-02-03T04:55:58;-9.90;99.90
22081;DHT22;11207;59.512;18.050;2023-02-03T04:58:24;-9.90;99.90
22081;DHT22;11207;59.512;18.050;2023-02-03T05:00:53;-9.90;99.90
22081;DHT22;11207;59.512;18.050;2023-02-03T05:03:19;-9.90;99.90
22081;DHT22;11207;59.512;18.050;2023-02-03T05:05:45;-9.90;99.90
22081;DHT22;11207;59.512;18.050;2023-02-03T05:08:10;-9.90;99.90
22081;DHT22;11207;59.512;18.050;2023-02-03T05:10:36;-9.90;99.90
22081;DHT22;11207;59.512;18.050;2023-02-03T05:13:02;-9.90;99.90
22081;DHT22;11207;59.512;18.050;2023-02-03T05:15:27;-9.80;99.90
22081;DHT22;11207;59.512;18.050;2023-02-03T05:17:53;-9.80;99.90
22081;DHT22;11207;59.512;18.050;2023-02-03T05:20:19;-9.90;99.90
22081;DHT22;11207;59.512;18.050;2023-02-03T05:22:45;-10.00;99.90
22081;DHT22;11207;59.512;18.050;2023-02-03T05:25:11;-9.90;99.90
22081;DHT22;11207;59.512;18.050;2023-02-03T05:27:37;-9.90;99.90
22081;DHT22;11207;59.512;18.050;2023-02-03T05:30:03;-10.00;99.90
22081;DHT22;11207;59.512;18.050;2023-02-03T05:32:29;-10.00;99.90
22081;DHT22;11207;59.512;18.050;2023-02-03T05:34:54;-9.90;99.90
22081;DHT22;11207;59.512;18.050;2023-02-03T05:37:20;-9.90;99.90
22081;DHT22;11207;59.512;18.050;2023-02-03T05:39:46;-9.90;99.90
22081;DHT22;11207;59.512;18.050;2023-02-03T05:42:11;-9.90;99.90
22081;DHT22;11207;59.512;18.050;2023-02-03T05:44:37;-9.80;99.90
22081;DHT22;11207;59.512;18.050;2023-02-03T05:47:03;-9.80;99.90
22081;DHT22;11207;59.512;18.050;2023-02-03T05:49:28;-9.80;99.90
22081;DHT22;11207;59.512;18.050;2023-02-03T05:51:55;-9.90;99.90
22081;DHT22;11207;59.512;18.050;2023-02-03T05:54:21;-10.00;99.90
22081;DHT22;11207;59.512;18.050;2023-02-03T05:56:47;-10.10;99.90
22081;DHT22;11207;59.512;18.050;2023-02-03T05:59:13;-10.00;99.90
22081;DHT22;11207;59.512;18.050;2023-02-03T06:01:39;-10.00;99.90
22081;DHT22;11207;59.512;18.050;2023-02-03T06:04:05;-9.90;99.90
22081;DHT22;11207;59.512;18.050;2023-02-03T06:06:31;-10.00;99.90
22081;DHT22;11207;59.512;18.050;2023-02-03T06:09:07;-10.00;99.90
22081;DHT22;11207;59.512;18.050;2023-02-03T06:11:34;-10.00;99.90
22081;DHT22;11207;59.512;18.050;2023-02-03T06:14:00;-10.00;99.90
22081;DHT22;11207;59.512;18.050;2023-02-03T06:16:27;-10.00;99.90
22081;DHT22;11207;59.512;18.050;2023-02-03T06:18:54;-10.00;99.90
22081;DHT22;11207;59.512;18.050;2023-02-03T06:21:22;-10.00;99.90
22081;DHT22;11207;59.512;18.050;2023-02-03T06:23:49;-10.00;99.90
22081;DHT22;11207;59.512;18.050;2023-02-03T06:26:21;-10.00;99.90
22081;DHT22;11207;59.512;18.050;2023-02-03T06:28:46;-10.00;99.90
22081;DHT22;11207;59.512;18.050;2023-02-03T06:31:12;-9.90;99.90
22081;DHT22;11207;59.512;18.050;2023-02-03T06:33:38;-9.90;99.90
22081;DHT22;11207;59.512;18.050;2023-02-03T06:36:03;-9.90;99.90
22081;DHT22;11207;59.512;18.050;2023-02-03T06:38:29;-9.90;99.90
22081;DHT22;11207;59.512;18.050;2023-02-03T06:40:55;-9.90;99.90
22081;DHT22;11207;59.512;18.050;2023-02-03T06:43:21;-9.90;99.90
22081;DHT22;11207;59.512;18.050;2023-02-03T06:48:44;-9.90;99.90
22081;DHT22;11207;59.512;18.050;2023-02-03T06:51:10;-9.90;99.90
22081;DHT22;11207;59.512;18.050;2023-02-03T06:53:46;-9.80;99.90
22081;DHT22;11207;59.512;18.050;2023-02-03T06:56:14;-10.00;99.90
22081;DHT22;11207;59.512;18.050;2023-02-03T06:58:40;-10.00;99.90
22081;DHT22;11207;59.512;18.050;2023-02-03T07:01:05;-10.00;99.90
22081;DHT22;11207;59.512;18.050;2023-02-03T07:03:31;-10.00;99.90
22081;DHT22;11207;59.512;18.050;2023-02-03T07:05:57;-10.00;99.90
22081;DHT22;11207;59.512;18.050;2023-02-03T07:08:22;-10.00;99.90
22081;DHT22;11207;59.512;18.050;2023-02-03T07:10:52;-10.00;99.90
22081;DHT22;11207;59.512;18.050;2023-02-03T07:13:18;-10.00;99.90
22081;DHT22;11207;59.512;18.050;2023-02-03T07:15:43;-9.90;99.90
22081;DHT22;11207;59.512;18.050;2023-02-03T07:18:09;-9.90;99.90
22081;DHT22;11207;59.512;18.050;2023-02-03T07:20:35;-9.80;99.90
22081;DHT22;11207;59.512;18.050;2023-02-03T07:23:00;-9.80;99.90
22081;DHT22;11207;59.512;18.050;2023-02-03T07:25:26;-9.80;99.90
22081;DHT22;11207;59.512;18.050;2023-02-03T07:27:52;-9.80;99.90
22081;DHT22;11207;59.512;18.050;2023-02-03T07:30:18;-9.70;99.90
22081;DHT22;11207;59.512;18.050;2023-02-03T07:32:48;-9.70;99.90
22081;DHT22;11207;59.512;18.050;2023-02-03T07:35:15;-9.80;99.90
22081;DHT22;11207;59.512;18.050;2023-02-03T07:37:41;-9.70;99.90
22081;DHT22;11207;59.512;18.050;2023-02-03T07:40:08;-9.60;99.90
22081;DHT22;11207;59.512;18.050;2023-02-03T07:42:34;-9.60;99.90
22081;DHT22;11207;59.512;18.050;2023-02-03T07:45:00;-9.50;99.90
22081;DHT22;11207;59.512;18.050;2023-02-03T07:47:26;-9.50;99.90
22081;DHT22;11207;59.512;18.050;2023-02-03T07:49:51;-9.50;99.90
22081;DHT22;11207;59.512;18.050;2023-02-03T07:52:17;-9.40;99.90
22081;DHT22;11207;59.512;18.050;2023-02-03T07:54:42;-9.40;99.90
22081;DHT22;11207;59.512;18.050;2023-02-03T07:57:08;-9.30;99.90
22081;DHT22;11207;59.512;18.050;2023-02-03T07:59:36;-9.50;99.90
22081;DHT22;11207;59.512;18.050;2023-02-03T08:02:01;-9.30;99.90
22081;DHT22;11207;59.512;18.050;2023-02-03T08:04:27;-9.30;99.90
22081;DHT22;11207;59.512;18.050;2023-02-03T08:06:52;-9.30;99.90
22081;DHT22;11207;59.512;18.050;2023-02-03T08:09:18;-9.20;99.90
22081;DHT22;11207;59.512;18.050;2023-02-03T08:11:44;-9.10;99.90
22081;DHT22;11207;59.512;18.050;2023-02-03T08:14:09;-9.10;99.90
22081;DHT22;11207;59.512;18.050;2023-02-03T08:16:35;-9.00;99.90
22081;DHT22;11207;59.512;18.050;2023-02-03T08:19:01;-8.90;99.90
22081;DHT22;11207;59.512;18.050;2023-02-03T08:21:26;-8.90;99.90
22081;DHT22;11207;59.512;18.050;2023-02-03T08:23:52;-8.80;99.90
22081;DHT22;11207;59.512;18.050;2023-02-03T08:26:17;-8.70;99.90
22081;DHT22;11207;59.512;18.050;2023-02-03T08:28:47;-8.60;99.90
22081;DHT22;11207;59.512;18.050;2023-02-03T08:31:13;-8.50;99.90
22081;DHT22;11207;59.512;18.050;2023-02-03T08:33:38;-8.40;99.90
22081;DHT22;11207;59.512;18.050;2023-02-03T08:36:04;-8.40;99.90
22081;DHT22;11207;59.512;18.050;2023-02-03T08:38:30;-8.30;99.90
22081;DHT22;11207;59.512;18.050;2023-02-03T08:40:56;-8.30;99.90
22081;DHT22;11207;59.512;18.050;2023-02-03T08:43:22;-8.20;99.90
22081;DHT22;11207;59.512;18.050;2023-02-03T08:45:47;-8.20;99.90
22081;DHT22;11207;59.512;18.050;2023-02-03T08:48:13;-8.10;99.90
22081;DHT22;11207;59.512;18.050;2023-02-03T08:50:42;-8.00;99.90
22081;DHT22;11207;59.512;18.050;2023-02-03T08:53:09;-8.00;99.90
22081;DHT22;11207;59.512;18.050;2023-02-03T08:55:38;-8.00;99.90
22081;DHT22;11207;59.512;18.050;2023-02-03T08:58:04;-8.00;99.90
22081;DHT22;11207;59.512;18.050;2023-02-03T09:00:30;-8.00;99.90
22081;DHT22;11207;59.512;18.050;2023-02-03T09:02:56;-7.90;99.90
22081;DHT22;11207;59.512;18.050;2023-02-03T09:05:21;-7.90;99.90
22081;DHT22;11207;59.512;18.050;2023-02-03T09:07:47;-7.70;99.90
22081;DHT22;11207;59.512;18.050;2023-02-03T09:10:12;-7.60;99.90
22081;DHT22;11207;59.512;18.050;2023-02-03T09:12:38;-7.40;99.90
22081;DHT22;11207;59.512;18.050;2023-02-03T09:15:04;-7.30;99.90
22081;DHT22;11207;59.512;18.050;2023-02-03T09:17:35;-7.20;99.90
22081;DHT22;11207;59.512;18.050;2023-02-03T09:20:04;-7.10;99.90
22081;DHT22;11207;59.512;18.050;2023-02-03T09:22:30;-7.00;99.90
22081;DHT22;11207;59.512;18.050;2023-02-03T09:24:55;-6.80;99.90
22081;DHT22;11207;59.512;18.050;2023-02-03T09:27:21;-6.60;99.90
22081;DHT22;11207;59.512;18.050;2023-02-03T09:29:47;-6.40;99.90
22081;DHT22;11207;59.512;18.050;2023-02-03T09:32:12;-6.30;99.90
22081;DHT22;11207;59.512;18.050;2023-02-03T09:34:38;-6.10;99.90
22081;DHT22;11207;59.512;18.050;2023-02-03T09:37:06;-6.10;99.90
22081;DHT22;11207;59.512;18.050;2023-02-03T09:39:31;-5.90;99.90
22081;DHT22;11207;59.512;18.050;2023-02-03T09:47:11;-5.70;99.90
22081;DHT22;11207;59.512;18.050;2023-02-03T09:50:00;-5.60;99.90
22081;DHT22;11207;59.512;18.050;2023-02-03T09:52:32;-5.50;99.90
22081;DHT22;11207;59.512;18.050;2023-02-03T09:55:03;-5.40;99.90
22081;DHT22;11207;59.512;18.050;2023-02-03T09:57:35;-5.30;99.90
22081;DHT22;11207;59.512;18.050;2023-02-03T10:00:09;-5.20;99.90
22081;DHT22;11207;59.512;18.050;2023-02-03T10:02:55;-5.10;99.90
22081;DHT22;11207;59.512;18.050;2023-02-03T10:08:35;-4.90;99.90
22081;DHT22;11207;59.512;18.050;2023-02-03T10:19:57;-4.70;99.90
22081;DHT22;11207;59.512;18.050;2023-02-03T10:22:27;-4.60;99.90
22081;DHT22;11207;59.512;18.050;2023-02-03T10:24:58;-4.50;99.90
22081;DHT22;11207;59.512;18.050;2023-02-03T10:27:25;-4.40;99.90
22081;DHT22;11207;59.512;18.050;2023-02-03T10:32:40;-4.30;99.90
22081;DHT22;11207;59.512;18.050;2023-02-03T10:35:10;-4.30;99.90
22081;DHT22;11207;59.512;18.050;2023-02-03T10:37:44;-4.20;99.90
22081;DHT22;11207;59.512;18.050;2023-02-03T10:40:13;-4.20;99.90
22081;DHT22;11207;59.512;18.050;2023-02-03T10:42:41;-4.20;99.90
22081;DHT22;11207;59.512;18.050;2023-02-03T10:45:35;-4.00;99.90
22081;DHT22;11207;59.512;18.050;2023-02-03T10:48:03;-3.90;99.90
22081;DHT22;11207;59.512;18.050;2023-02-03T10:50:29;-3.70;99.90
22081;DHT22;11207;59.512;18.050;2023-02-03T10:55:46;-3.40;99.90
22081;DHT22;11207;59.512;18.050;2023-02-03T10:58:18;-3.10;99.90
22081;DHT22;11207;59.512;18.050;2023-02-03T11:00:53;-3.00;99.90
22081;DHT22;11207;59.512;18.050;2023-02-03T11:03:22;-2.90;99.90
22081;DHT22;11207;59.512;18.050;2023-02-03T11:06:15;-2.80;99.90
22081;DHT22;11207;59.512;18.050;2023-02-03T11:08:44;-2.70;99.90
22081;DHT22;11207;59.512;18.050;2023-02-03T11:13:40;-2.40;99.90
22081;DHT22;11207;59.512;18.050;2023-02-03T11:16:24;-2.30;99.90
22081;DHT22;11207;59.512;18.050;2023-02-03T11:26:42;-1.90;99.90
22081;DHT22;11207;59.512;18.050;2023-02-03T11:29:25;-1.80;99.90
22081;DHT22;11207;59.512;18.050;2023-02-03T11:31:54;-1.80;99.90
22081;DHT22;11207;59.512;18.050;2023-02-03T11:34:44;-1.80;99.90
22081;DHT22;11207;59.512;18.050;2023-02-03T11:37:39;-1.60;99.90
22081;DHT22;11207;59.512;18.050;2023-02-03T11:42:33;-1.50;99.90
22081;DHT22;11207;59.512;18.050;2023-02-03T11:47:58;-1.40;99.90
22081;DHT22;11207;59.512;18.050;2023-02-03T11:51:04;-1.40;99.90
22081;DHT22;11207;59.512;18.050;2023-02-03T11:59:30;-1.20;99.90
22081;DHT22;11207;59.512;18.050;2023-02-03T12:05:16;-1.20;99.90
22081;DHT22;11207;59.512;18.050;2023-02-03T12:16:40;-1.20;99.90
22081;DHT22;11207;59.512;18.050;2023-02-03T12:21:46;-1.10;99.90
22081;DHT22;11207;59.512;18.050;2023-02-03T12:30:42;-0.90;99.90
22081;DHT22;11207;59.512;18.050;2023-02-03T12:33:16;-0.90;99.90
22081;DHT22;11207;59.512;18.050;2023-02-03T12:35:50;-0.80;99.90
22081;DHT22;11207;59.512;18.050;2023-02-03T12:38:35;-0.80;99.90
22081;DHT22;11207;59.512;18.050;2023-02-03T12:41:14;-0.70;99.90
22081;DHT22;11207;59.512;18.050;2023-02-03T12:43:47;-0.70;99.90
22081;DHT22;11207;59.512;18.050;2023-02-03T12:46:37;-0.70;99.90
22081;DHT22;11207;59.512;18.050;2023-02-03T12:52:07;-0.70;99.90
22081;DHT22;11207;59.512;18.050;2023-02-03T12:54:47;-0.60;99.90
22081;DHT22;11207;59.512;18.050;2023-02-03T12:57:22;-0.60;99.90
22081;DHT22;11207;59.512;18.050;2023-02-03T13:00:17;-0.50;99.90
22081;DHT22;11207;59.512;18.050;2023-02-03T13:05:50;-0.60;99.90
22081;DHT22;11207;59.512;18.050;2023-02-03T13:08:35;-0.60;99.90
22081;DHT22;11207;59.512;18.050;2023-02-03T13:14:16;-0.70;99.90
22081;DHT22;11207;59.512;18.050;2023-02-03T13:16:46;-0.70;99.90
22081;DHT22;11207;59.512;18.050;2023-02-03T13:19:21;-0.70;99.90
22081;DHT22;11207;59.512;18.050;2023-02-03T13:21:49;-0.80;99.90
22081;DHT22;11207;59.512;18.050;2023-02-03T13:24:15;-0.80;99.90
22081;DHT22;11207;59.512;18.050;2023-02-03T13:29:49;-0.80;99.90
22081;DHT22;11207;59.512;18.050;2023-02-03T13:39:16;-0.90;99.90
22081;DHT22;11207;59.512;18.050;2023-02-03T13:44:02;-1.00;99.90
22081;DHT22;11207;59.512;18.050;2023-02-03T13:46:31;-1.00;99.90
22081;DHT22;11207;59.512;18.050;2023-02-03T13:49:00;-1.10;99.90
22081;DHT22;11207;59.512;18.050;2023-02-03T13:51:33;-1.10;99.90
22081;DHT22;11207;59.512;18.050;2023-02-03T13:54:05;-1.20;99.90
22081;DHT22;11207;59.512;18.050;2023-02-03T13:56:32;-1.20;99.90
22081;DHT22;11207;59.512;18.050;2023-02-03T14:01:35;-1.30;99.90
22081;DHT22;11207;59.512;18.050;2023-02-03T14:04:05;-1.30;99.90
22081;DHT22;11207;59.512;18.050;2023-02-03T14:14:57;-1.50;99.90
22081;DHT22;11207;59.512;18.050;2023-02-03T14:20:02;-1.60;99.90
22081;DHT22;11207;59.512;18.050;2023-02-03T14:22:28;-1.70;99.90
22081;DHT22;11207;59.512;18.050;2023-02-03T14:24:55;-1.70;99.90
22081;DHT22;11207;59.512;18.050;2023-02-03T14:27:24;-1.70;99.90
22081;DHT22;11207;59.512;18.050;2023-02-03T14:30:12;-1.80;99.90
22081;DHT22;11207;59.512;18.050;2023-02-03T14:32:59;-1.80;99.90
22081;DHT22;11207;59.512;18.050;2023-02-03T14:37:59;-1.90;99.90
22081;DHT22;11207;59.512;18.050;2023-02-03T14:41:05;-2.00;99.90
22081;DHT22;11207;59.512;18.050;2023-02-03T14:43:39;-2.10;99.90
22081;DHT22;11207;59.512;18.050;2023-02-03T14:46:50;-2.10;99.90
22081;DHT22;11207;59.512;18.050;2023-02-03T14:49:46;-2.20;99.90
22081;DHT22;11207;59.512;18.050;2023-02-03T14:52:38;-2.20;99.90
22081;DHT22;11207;59.512;18.050;2023-02-03T14:55:32;-2.20;99.90
22081;DHT22;11207;59.512;18.050;2023-02-03T14:58:03;-2.30;99.90
22081;DHT22;11207;59.512;18.050;2023-02-03T15:00:33;-2.30;99.90
22081;DHT22;11207;59.512;18.050;2023-02-03T15:05:50;-2.30;99.90
22081;DHT22;11207;59.512;18.050;2023-02-03T15:11:30;-2.40;99.90
22081;DHT22;11207;59.512;18.050;2023-02-03T15:14:13;-2.50;99.90
22081;DHT22;11207;59.512;18.050;2023-02-03T15:16:42;-2.50;99.90
22081;DHT22;11207;59.512;18.050;2023-02-03T15:19:19;-2.50;99.90
22081;DHT22;11207;59.512;18.050;2023-02-03T15:21:47;-2.50;99.90
22081;DHT22;11207;59.512;18.050;2023-02-03T15:24:15;-2.50;99.90
22081;DHT22;11207;59.512;18.050;2023-02-03T15:26:49;-2.60;99.90
22081;DHT22;11207;59.512;18.050;2023-02-03T15:29:19;-2.60;99.90
22081;DHT22;11207;59.512;18.050;2023-02-03T15:31:48;-2.60;99.90
22081;DHT22;11207;59.512;18.050;2023-02-03T15:34:27;-2.70;99.90
22081;DHT22;11207;59.512;18.050;2023-02-03T15:36:56;-2.80;99.90
22081;DHT22;11207;59.512;18.050;2023-02-03T15:42:32;-2.80;99.90
22081;DHT22;11207;59.512;18.050;2023-02-03T15:47:44;-2.90;99.90
22081;DHT22;11207;59.512;18.050;2023-02-03T15:50:34;-2.90;99.90
22081;DHT22;11207;59.512;18.050;2023-02-03T15:53:06;-3.00;99.90
22081;DHT22;11207;59.512;18.050;2023-02-03T15:55:46;-3.00;99.90
22081;DHT22;11207;59.512;18.050;2023-02-03T15:58:17;-3.10;99.90
22081;DHT22;11207;59.512;18.050;2023-02-03T16:00:47;-3.10;99.90
22081;DHT22;11207;59.512;18.050;2023-02-03T16:03:17;-3.10;99.90
22081;DHT22;11207;59.512;18.050;2023-02-03T16:05:46;-3.10;99.90
22081;DHT22;11207;59.512;18.050;2023-02-03T16:10:58;-3.10;99.90
22081;DHT22;11207;59.512;18.050;2023-02-03T16:13:26;-2.90;99.90
22081;DHT22;11207;59.512;18.050;2023-02-03T16:16:17;-2.80;99.90
22081;DHT22;11207;59.512;18.050;2023-02-03T16:18:56;-2.80;99.90
22081;DHT22;11207;59.512;18.050;2023-02-03T16:29:51;-2.60;99.90
22081;DHT22;11207;59.512;18.050;2023-02-03T16:32:35;-2.60;99.90
22081;DHT22;11207;59.512;18.050;2023-02-03T16:35:20;-2.50;99.90
22081;DHT22;11207;59.512;18.050;2023-02-03T16:40:56;-2.50;99.90
22081;DHT22;11207;59.512;18.050;2023-02-03T16:43:40;-2.50;99.90
22081;DHT22;11207;59.512;18.050;2023-02-03T16:46:24;-2.40;99.90
22081;DHT22;11207;59.512;18.050;2023-02-03T16:49:08;-2.30;99.90
22081;DHT22;11207;59.512;18.050;2023-02-03T16:51:52;-2.30;99.90
22081;DHT22;11207;59.512;18.050;2023-02-03T16:54:18;-2.30;99.90
22081;DHT22;11207;59.512;18.050;2023-02-03T16:56:44;-2.40;99.90
22081;DHT22;11207;59.512;18.050;2023-02-03T16:59:10;-2.40;99.90
22081;DHT22;11207;59.512;18.050;2023-02-03T17:01:36;-2.40;99.90
22081;DHT22;11207;59.512;18.050;2023-02-03T17:04:02;-2.30;99.90
22081;DHT22;11207;59.512;18.050;2023-02-03T17:06:28;-2.30;99.90
22081;DHT22;11207;59.512;18.050;2023-02-03T17:08:54;-2.30;99.90
22081;DHT22;11207;59.512;18.050;2023-02-03T17:11:22;-2.30;99.90
22081;DHT22;11207;59.512;18.050;2023-02-03T17:13:48;-2.20;99.90
22081;DHT22;11207;59.512;18.050;2023-02-03T17:16:16;-2.20;99.90
22081;DHT22;11207;59.512;18.050;2023-02-03T17:18:42;-2.10;99.90
22081;DHT22;11207;59.512;18.050;2023-02-03T17:21:17;-2.10;99.90
22081;DHT22;11207;59.512;18.050;2023-02-03T17:23:43;-2.10;99.90
22081;DHT22;11207;59.512;18.050;2023-02-03T17:26:09;-2.00;99.90
22081;DHT22;11207;59.512;18.050;2023-02-03T17:28:35;-2.00;99.90
22081;DHT22;11207;59.512;18.050;2023-02-03T17:31:02;-2.00;99.90
22081;DHT22;11207;59.512;18.050;2023-02-03T17:33:29;-1.90;99.90
22081;DHT22;11207;59.512;18.050;2023-02-03T17:36:15;-1.80;99.90
22081;DHT22;11207;59.512;18.050;2023-02-03T17:38:43;-1.90;99.90
22081;DHT22;11207;59.512;18.050;2023-02-03T17:41:17;-1.80;99.90
22081;DHT22;11207;59.512;18.050;2023-02-03T17:43:44;-1.80;99.90
22081;DHT22;11207;59.512;18.050;2023-02-03T17:46:11;-1.80;99.90
22081;DHT22;11207;59.512;18.050;2023-02-03T17:48:37;-1.80;99.90
22081;DHT22;11207;59.512;18.050;2023-02-03T17:51:08;-1.80;99.90
22081;DHT22;11207;59.512;18.050;2023-02-03T17:53:35;-1.70;99.90
22081;DHT22;11207;59.512;18.050;2023-02-03T17:56:14;-1.70;99.90
22081;DHT22;11207;59.512;18.050;2023-02-03T17:58:41;-1.80;99.90
22081;DHT22;11207;59.512;18.050;2023-02-03T18:01:08;-1.80;99.90
22081;DHT22;11207;59.512;18.050;2023-02-03T18:03:43;-1.80;99.90
22081;DHT22;11207;59.512;18.050;2023-02-03T18:06:10;-1.80;99.90
22081;DHT22;11207;59.512;18.050;2023-02-03T18:08:35;-1.70;99.90